createdAt,value
2019-03-10T00:00:38.706Z,72.54
2019-03-10T00:03:08.775Z,73.11
2019-03-10T00:05:38.809Z,73.17
2019-03-10T00:10:48.227Z,73.79
2019-03-10T00:13:18.248Z,73.99
2019-03-10T00:15:48.596Z,74.00
2019-03-10T00:18:18.611Z,73.91
2019-03-10T00:20:48.723Z,73.99
2019-03-10T00:23:18.761Z,74.01
2019-03-10T00:25:48.808Z,73.72
2019-03-10T00:28:18.831Z,74.07
2019-03-10T00:30:49.182Z,73.88
2019-03-10T00:33:19.232Z,73.69
2019-03-10T00:35:49.262Z,73.16
2019-03-10T00:38:19.631Z,72.65
2019-03-10T00:47:22.157Z,71.68
2019-03-10T00:50:00.885Z,71.68
2019-03-10T00:55:24.404Z,71.11
2019-03-10T00:57:54.425Z,70.93
2019-03-10T01:00:24.487Z,70.59
2019-03-10T01:02:54.541Z,70.60
2019-03-10T01:05:24.570Z,70.62
2019-03-10T01:07:54.596Z,70.44
2019-03-10T01:10:24.630Z,70.63
2019-03-10T01:12:54.648Z,70.58
2019-03-10T01:15:24.693Z,70.26
2019-03-10T01:17:54.733Z,70.02
2019-03-10T01:20:24.778Z,69.89
2019-03-10T01:22:54.810Z,69.74
2019-03-10T01:25:25.145Z,69.42
2019-03-10T01:27:55.165Z,69.79
2019-03-10T01:30:25.231Z,69.82
2019-03-10T01:33:13.698Z,69.44
2019-03-10T01:35:43.722Z,69.16
2019-03-10T01:38:13.764Z,69.16
2019-03-10T01:40:43.809Z,69.16
2019-03-10T01:43:13.815Z,69.66
2019-03-10T01:45:43.848Z,69.02
2019-03-10T01:48:14.243Z,69.18
2019-03-10T01:50:44.562Z,68.87
2019-03-10T01:53:14.582Z,67.87
2019-03-10T01:55:44.615Z,68.34
2019-03-10T01:58:15.006Z,68.45
2019-03-10T02:00:45.329Z,68.09
2019-03-10T02:03:15.604Z,67.77
2019-03-10T02:05:45.974Z,68.38
2019-03-10T02:08:16.011Z,68.39
2019-03-10T02:10:46.418Z,68.81
2019-03-10T02:13:16.734Z,68.81
2019-03-10T02:15:46.767Z,68.58
2019-03-10T02:18:16.792Z,68.51
2019-03-10T02:20:46.843Z,68.62
2019-03-10T02:23:17.197Z,69.02
2019-03-10T02:25:47.250Z,69.02
2019-03-10T02:28:17.291Z,69.11
2019-03-10T02:30:47.318Z,69.25
2019-03-10T02:33:17.688Z,69.41
2019-03-10T02:35:47.756Z,69.64
2019-03-10T02:38:17.803Z,69.86
2019-03-10T02:40:47.828Z,70.03
2019-03-10T02:43:17.872Z,70.61
2019-03-10T02:45:47.893Z,70.45
2019-03-10T02:48:17.965Z,70.48
2019-03-10T02:50:47.963Z,70.35
2019-03-10T02:53:17.977Z,70.37
2019-03-10T02:55:48.016Z,70.42
2019-03-10T02:58:18.030Z,70.64
2019-03-10T03:00:48.074Z,70.84
2019-03-10T03:03:18.082Z,71.19
2019-03-10T03:05:48.115Z,71.51
2019-03-10T03:08:18.134Z,71.28
2019-03-10T03:10:48.545Z,71.01
2019-03-10T03:13:18.636Z,71.19
2019-03-10T03:15:48.676Z,70.99
2019-03-10T03:18:18.976Z,71.64
2019-03-10T03:20:49.321Z,71.67
2019-03-10T03:26:07.150Z,71.32
2019-03-10T03:28:37.493Z,71.82
2019-03-10T03:31:07.575Z,72.20
2019-03-10T03:33:37.908Z,72.16
2019-03-10T03:39:19.053Z,72.19
2019-03-10T03:41:49.080Z,72.19
2019-03-10T03:44:19.438Z,72.00
2019-03-10T03:46:49.767Z,72.42
2019-03-10T03:49:19.805Z,72.43
2019-03-10T03:51:49.847Z,72.68
2019-03-10T03:54:19.867Z,72.39
2019-03-10T03:56:49.899Z,72.47
2019-03-10T03:59:19.960Z,72.58
2019-03-10T04:01:50.267Z,73.01
2019-03-10T04:04:20.739Z,72.85
2019-03-10T04:06:50.756Z,73.57
2019-03-10T04:09:21.032Z,73.47
2019-03-10T04:11:51.075Z,73.23
2019-03-10T04:14:21.117Z,73.32
2019-03-10T04:19:30.488Z,73.39
2019-03-10T04:22:00.518Z,73.39
2019-03-10T04:24:30.652Z,73.77
2019-03-10T04:27:00.865Z,73.77
2019-03-10T04:29:30.911Z,72.31
2019-03-10T04:34:41.033Z,72.56
2019-03-10T04:37:11.059Z,72.42
2019-03-10T04:39:41.385Z,72.85
2019-03-10T04:42:11.429Z,72.78
2019-03-10T04:44:41.474Z,72.25
2019-03-10T04:47:11.520Z,72.22
2019-03-10T04:49:41.537Z,72.20
2019-03-10T04:52:11.567Z,72.51
2019-03-10T04:54:41.590Z,72.61
2019-03-10T04:57:11.617Z,72.86
2019-03-10T04:59:41.658Z,73.17
2019-03-10T05:02:11.715Z,72.84
2019-03-10T05:04:42.046Z,73.43
2019-03-10T05:07:12.360Z,73.43
2019-03-10T05:09:42.403Z,73.70
2019-03-10T05:12:12.466Z,73.31
2019-03-10T05:14:42.494Z,73.22
2019-03-10T05:17:12.539Z,73.56
2019-03-10T05:19:42.575Z,73.48
2019-03-10T05:22:12.610Z,73.69
2019-03-10T05:24:42.639Z,73.79
2019-03-10T05:27:12.696Z,73.74
2019-03-10T05:29:42.712Z,73.46
2019-03-10T05:32:13.145Z,73.43
2019-03-10T05:34:43.167Z,73.36
2019-03-10T05:37:13.208Z,74.17
2019-03-10T05:39:43.222Z,74.17
2019-03-10T05:42:13.270Z,74.50
2019-03-10T05:44:43.300Z,74.84
2019-03-10T05:47:13.643Z,73.73
2019-03-10T05:49:43.956Z,73.73
2019-03-10T05:52:13.989Z,73.81
2019-03-10T05:54:44.009Z,75.04
2019-03-10T05:57:14.060Z,75.18
2019-03-10T05:59:44.084Z,75.15
2019-03-10T06:02:14.113Z,75.61
2019-03-10T06:04:44.467Z,75.97
2019-03-10T06:07:14.519Z,76.99
2019-03-10T06:09:44.913Z,76.65
2019-03-10T06:12:14.980Z,76.66
2019-03-10T06:14:45.023Z,77.26
2019-03-10T06:17:15.100Z,77.19
2019-03-10T06:19:45.116Z,77.19
2019-03-10T06:22:15.122Z,77.48
2019-03-10T06:24:45.562Z,77.96
2019-03-10T06:27:15.835Z,78.40
2019-03-10T06:29:46.175Z,79.10
2019-03-10T06:32:16.209Z,79.46
2019-03-10T06:34:46.254Z,79.62
2019-03-10T06:37:16.271Z,80.44
2019-03-10T06:39:46.361Z,80.45
2019-03-10T06:42:16.728Z,81.14
2019-03-10T06:44:46.764Z,81.12
2019-03-10T06:47:16.807Z,81.17
2019-03-10T06:49:46.841Z,81.26
2019-03-10T06:52:16.864Z,81.71
2019-03-10T06:54:46.923Z,81.75
2019-03-10T06:57:16.950Z,81.40
2019-03-10T06:59:46.987Z,81.66
2019-03-10T07:02:17.037Z,81.23
2019-03-10T07:04:47.387Z,82.32
2019-03-10T07:07:17.407Z,82.32
2019-03-10T07:09:47.463Z,82.51
2019-03-10T07:12:17.494Z,82.72
2019-03-10T07:14:47.542Z,82.72
2019-03-10T07:17:17.571Z,82.32
2019-03-10T07:19:47.856Z,82.52
2019-03-10T07:22:17.894Z,83.11
2019-03-10T07:24:47.939Z,82.49
2019-03-10T07:27:17.958Z,82.78
2019-03-10T07:29:48.255Z,82.74
2019-03-10T07:32:18.287Z,83.26
2019-03-10T07:34:48.325Z,83.44
2019-03-10T07:37:18.342Z,83.39
2019-03-10T07:39:48.731Z,83.31
2019-03-10T07:42:18.751Z,83.31
2019-03-10T07:44:49.055Z,83.60
2019-03-10T07:47:19.072Z,83.64
2019-03-10T07:49:49.120Z,83.65
2019-03-10T07:52:20.582Z,83.19
2019-03-10T07:54:49.182Z,83.29
2019-03-10T07:57:19.545Z,83.44
2019-03-10T07:59:49.885Z,83.04
2019-03-10T08:02:19.912Z,83.23
2019-03-10T08:04:49.946Z,83.68
2019-03-10T08:07:19.957Z,83.81
2019-03-10T08:09:50.006Z,83.81
2019-03-10T08:12:20.029Z,83.78
2019-03-10T08:14:50.055Z,83.85
2019-03-10T08:17:20.393Z,83.85
2019-03-10T08:19:50.543Z,84.30
2019-03-10T08:22:20.819Z,84.22
2019-03-10T08:24:50.885Z,84.06
2019-03-10T08:27:20.907Z,83.89
2019-03-10T08:29:50.968Z,83.60
2019-03-10T08:32:21.109Z,84.01
2019-03-10T08:34:51.409Z,83.72
2019-03-10T08:37:21.422Z,83.77
2019-03-10T08:39:51.754Z,83.96
2019-03-10T08:42:21.774Z,83.74
2019-03-10T08:44:52.101Z,84.25
2019-03-10T08:47:22.232Z,83.69
2019-03-10T08:49:52.254Z,83.62
2019-03-10T08:52:22.294Z,83.95
2019-03-10T08:54:52.675Z,83.38
2019-03-10T08:57:22.707Z,83.89
2019-03-10T08:59:52.937Z,83.58
2019-03-10T09:02:23.117Z,83.85
2019-03-10T09:04:53.368Z,83.20
2019-03-10T09:07:23.400Z,84.12
2019-03-10T09:09:53.781Z,84.47
2019-03-10T09:12:23.806Z,84.47
2019-03-10T09:14:54.233Z,84.42
2019-03-10T09:17:24.570Z,84.37
2019-03-10T09:22:34.371Z,84.27
2019-03-10T09:25:04.431Z,84.41
2019-03-10T09:27:34.747Z,83.58
2019-03-10T09:30:04.788Z,83.24
2019-03-10T09:32:36.806Z,83.24
2019-03-10T09:35:04.890Z,83.77
2019-03-10T09:37:34.917Z,83.80
2019-03-10T09:40:05.229Z,84.34
2019-03-10T09:42:35.259Z,84.29
2019-03-10T09:45:05.552Z,84.51
2019-03-10T09:47:35.587Z,84.99
2019-03-10T09:50:05.736Z,85.11
2019-03-10T09:52:35.685Z,84.80
2019-03-10T09:55:06.043Z,84.49
2019-03-10T09:57:36.372Z,85.09
2019-03-10T10:00:06.430Z,85.26
2019-03-10T10:02:36.469Z,85.48
2019-03-10T10:05:06.518Z,85.31
2019-03-10T10:07:36.841Z,85.28
2019-03-10T10:10:06.907Z,85.49
2019-03-10T10:12:37.277Z,85.38
2019-03-10T10:15:07.337Z,84.90
2019-03-10T10:17:37.369Z,85.08
2019-03-10T10:20:07.408Z,85.58
2019-03-10T10:22:37.432Z,85.44
2019-03-10T10:25:07.464Z,85.83
2019-03-10T10:27:37.772Z,85.92
2019-03-10T10:30:11.184Z,86.15
2019-03-10T10:32:41.489Z,85.97
2019-03-10T10:35:11.543Z,86.13
2019-03-10T10:37:41.949Z,86.05
2019-03-10T10:40:12.269Z,86.28
2019-03-10T10:42:42.295Z,86.17
2019-03-10T10:45:12.374Z,85.83
2019-03-10T10:47:42.722Z,85.33
2019-03-10T10:50:13.924Z,85.18
2019-03-10T10:52:43.075Z,85.47
2019-03-10T10:55:13.393Z,85.26
2019-03-10T10:57:43.602Z,84.92
2019-03-10T11:00:13.617Z,85.40
2019-03-10T11:02:43.934Z,85.67
2019-03-10T11:05:13.978Z,85.48
2019-03-10T11:07:43.991Z,85.65
2019-03-10T11:10:14.281Z,85.46
2019-03-10T11:12:44.321Z,84.90
2019-03-10T11:15:14.622Z,84.29
2019-03-10T11:17:44.977Z,84.61
2019-03-10T11:20:15.047Z,84.80
2019-03-10T11:22:45.089Z,84.80
2019-03-10T11:25:15.141Z,85.14
2019-03-10T11:27:45.200Z,85.28
2019-03-10T11:30:15.533Z,85.49
2019-03-10T11:32:45.877Z,85.39
2019-03-10T11:35:16.176Z,85.38
2019-03-10T11:37:46.497Z,85.07
2019-03-10T11:40:16.828Z,84.83
2019-03-10T11:42:46.861Z,85.12
2019-03-10T11:45:16.891Z,85.55
2019-03-10T11:47:47.303Z,86.06
2019-03-10T11:50:17.626Z,85.47
2019-03-10T11:52:47.652Z,86.20
2019-03-10T11:55:17.694Z,86.27
2019-03-10T11:57:47.740Z,86.20
2019-03-10T12:00:17.774Z,86.13
2019-03-10T12:02:47.801Z,86.02
2019-03-10T12:05:18.226Z,85.66
2019-03-10T12:07:48.259Z,84.46
2019-03-10T12:10:18.569Z,83.49
2019-03-10T12:12:48.978Z,82.87
2019-03-10T12:15:19.283Z,81.83
2019-03-10T12:17:49.615Z,81.42
2019-03-10T12:20:19.649Z,80.71
2019-03-10T12:22:49.980Z,78.99
2019-03-10T12:25:20.247Z,78.34
2019-03-10T12:27:50.599Z,78.17
2019-03-10T12:30:20.645Z,77.50
2019-03-10T12:32:50.935Z,77.16
2019-03-10T12:35:20.993Z,76.94
2019-03-10T12:37:51.381Z,75.70
2019-03-10T12:40:21.695Z,74.14
2019-03-10T12:42:51.770Z,73.89
2019-03-10T12:45:21.759Z,73.52
2019-03-10T12:47:52.153Z,72.98
2019-03-10T12:50:22.183Z,72.99
2019-03-10T12:52:52.259Z,73.36
2019-03-10T12:55:22.635Z,72.82
2019-03-10T12:57:52.681Z,71.05
2019-03-10T13:00:23.058Z,72.67
2019-03-10T13:02:53.400Z,73.42
2019-03-10T13:05:23.699Z,73.34
2019-03-10T13:07:53.741Z,73.98
2019-03-10T13:10:23.760Z,75.23
2019-03-10T13:12:54.143Z,78.02
2019-03-10T13:15:24.176Z,79.02
2019-03-10T13:17:54.201Z,78.24
2019-03-10T13:20:28.089Z,78.10
2019-03-10T13:22:54.618Z,79.51
2019-03-10T13:25:24.632Z,79.18
2019-03-10T13:27:55.161Z,79.56
2019-03-10T13:30:25.198Z,79.14
2019-03-10T13:32:55.228Z,80.26
2019-03-10T13:35:25.273Z,81.38
2019-03-10T13:37:55.335Z,80.20
2019-03-10T13:40:25.364Z,78.86
2019-03-10T13:42:55.390Z,80.70
2019-03-10T13:45:25.678Z,81.11
2019-03-10T13:47:55.709Z,80.93
2019-03-10T13:50:26.143Z,80.64
2019-03-10T13:52:56.195Z,79.99
2019-03-10T13:55:26.229Z,79.32
2019-03-10T13:57:56.280Z,78.35
2019-03-10T14:00:26.310Z,79.82
2019-03-10T14:02:56.606Z,79.18
2019-03-10T14:05:26.880Z,79.56
2019-03-10T14:07:56.936Z,79.02
2019-03-10T14:10:27.274Z,79.43
2019-03-10T14:12:57.315Z,79.57
2019-03-10T14:15:27.378Z,78.43
2019-03-10T14:17:57.666Z,78.88
2019-03-10T14:20:27.690Z,79.33
2019-03-10T14:22:57.724Z,79.46
2019-03-10T14:25:27.846Z,78.98
2019-03-10T14:27:57.786Z,79.24
2019-03-10T14:30:27.815Z,78.27
2019-03-10T14:32:57.857Z,78.76
2019-03-10T14:35:27.883Z,79.06
2019-03-10T14:37:57.925Z,76.51
2019-03-10T14:40:28.268Z,75.53
2019-03-10T14:42:58.357Z,74.55
2019-03-10T14:45:28.707Z,73.33
2019-03-10T14:47:59.055Z,71.74
2019-03-10T14:50:29.362Z,69.11
2019-03-10T14:52:59.706Z,69.12
2019-03-10T14:55:29.732Z,68.73
2019-03-10T14:57:59.783Z,68.60
2019-03-10T15:00:30.135Z,68.35
2019-03-10T15:03:00.469Z,70.13
2019-03-10T15:05:30.487Z,70.72
2019-03-10T15:08:00.916Z,71.71
2019-03-10T15:10:30.945Z,71.26
2019-03-10T15:13:00.972Z,70.64
2019-03-10T15:15:31.018Z,71.27
2019-03-10T15:18:02.985Z,71.23
2019-03-10T15:20:31.384Z,71.25
2019-03-10T15:23:01.413Z,70.67
2019-03-10T15:25:31.440Z,70.39
2019-03-10T15:28:01.738Z,69.71
2019-03-10T15:30:31.781Z,70.30
2019-03-10T15:33:01.916Z,69.70
2019-03-10T15:35:31.929Z,68.21
2019-03-10T15:38:01.986Z,69.40
2019-03-10T15:40:32.324Z,66.74
2019-03-10T15:43:02.387Z,67.63
2019-03-10T15:45:32.483Z,66.56
2019-03-10T15:48:02.560Z,66.09
2019-03-10T15:50:35.518Z,61.80
2019-03-10T15:53:05.555Z,61.37
2019-03-10T15:55:35.843Z,62.22
2019-03-10T15:58:05.856Z,62.25
2019-03-10T16:00:36.231Z,60.39
2019-03-10T16:03:06.285Z,59.72
2019-03-10T16:05:36.367Z,58.80
2019-03-10T16:08:06.355Z,58.47
2019-03-10T16:10:36.402Z,58.28
2019-03-10T16:13:06.726Z,57.42
2019-03-10T16:15:36.764Z,58.13
2019-03-10T16:18:06.793Z,57.11
2019-03-10T16:20:37.178Z,56.61
2019-03-10T16:25:46.830Z,55.56
2019-03-10T16:28:17.196Z,54.55
2019-03-10T16:30:47.474Z,53.60
2019-03-10T16:33:17.504Z,55.23
2019-03-10T16:35:47.547Z,55.52
2019-03-10T16:38:17.570Z,56.06
2019-03-10T16:40:47.603Z,55.65
2019-03-10T16:43:17.839Z,53.96
2019-03-10T16:45:47.848Z,52.94
2019-03-10T16:50:57.250Z,53.38
2019-03-10T16:53:27.275Z,53.80
2019-03-10T16:56:02.762Z,54.41
2019-03-10T16:58:27.458Z,54.27
2019-03-10T17:00:57.501Z,53.31
2019-03-10T17:03:27.819Z,53.44
2019-03-10T17:05:57.875Z,53.88
2019-03-10T17:08:28.280Z,54.42
2019-03-10T17:10:58.336Z,54.91
2019-03-10T17:13:28.590Z,53.60
2019-03-10T17:15:59.024Z,54.49
2019-03-10T17:18:29.047Z,54.04
2019-03-10T17:20:59.474Z,53.28
2019-03-10T17:23:29.487Z,53.23
2019-03-10T17:25:59.787Z,52.60
2019-03-10T17:28:29.839Z,52.28
2019-03-10T17:31:00.248Z,51.29
2019-03-10T17:33:30.276Z,50.59
2019-03-10T17:36:00.316Z,51.51
2019-03-10T17:38:30.601Z,51.77
2019-03-10T17:41:00.648Z,52.42
2019-03-10T17:43:31.039Z,52.45
2019-03-10T17:46:01.074Z,51.58
2019-03-10T17:48:31.391Z,51.32
2019-03-10T17:51:01.414Z,50.61
2019-03-10T17:53:31.824Z,51.03
2019-03-10T17:56:01.853Z,50.42
2019-03-10T17:58:33.961Z,50.85
2019-03-10T18:01:02.196Z,51.21
2019-03-10T18:03:32.230Z,51.57
2019-03-10T18:06:02.279Z,51.72
2019-03-10T18:08:32.299Z,51.79
2019-03-10T18:11:02.331Z,49.32
2019-03-10T18:13:32.347Z,48.28
2019-03-10T18:18:42.121Z,47.29
2019-03-10T18:21:12.416Z,48.15
2019-03-10T18:23:42.841Z,50.34
2019-03-10T18:26:12.877Z,53.49
2019-03-10T18:28:42.912Z,54.10
2019-03-10T18:31:12.961Z,54.12
2019-03-10T18:33:43.317Z,54.16
2019-03-10T18:36:13.398Z,54.40
2019-03-10T18:38:43.376Z,52.69
2019-03-10T18:41:13.771Z,53.09
2019-03-10T18:43:43.799Z,50.68
2019-03-10T18:46:13.836Z,50.04
2019-03-10T18:48:44.237Z,48.63
2019-03-10T18:51:14.552Z,49.39
2019-03-10T18:53:44.875Z,49.55
2019-03-10T18:56:14.930Z,49.77
2019-03-10T18:58:44.953Z,49.88
2019-03-10T19:01:14.998Z,50.21
2019-03-10T19:03:45.389Z,49.92
2019-03-10T19:06:15.435Z,50.35
2019-03-10T19:08:45.458Z,50.84
2019-03-10T19:11:15.505Z,52.17
2019-03-10T19:13:45.550Z,52.48
2019-03-10T19:16:15.581Z,52.20
2019-03-10T19:18:45.614Z,52.92
2019-03-10T19:21:15.661Z,51.89
2019-03-10T19:23:45.974Z,52.58
2019-03-10T19:26:16.016Z,52.76
2019-03-10T19:28:46.324Z,53.85
2019-03-10T19:31:16.376Z,54.12
2019-03-10T19:33:46.394Z,53.69
2019-03-10T19:36:16.432Z,53.57
2019-03-10T19:38:46.435Z,54.11
2019-03-10T19:41:16.472Z,54.95
2019-03-10T19:43:46.504Z,55.95
2019-03-10T19:46:16.569Z,56.43
2019-03-10T19:48:46.610Z,57.20
2019-03-10T19:51:16.689Z,57.78
2019-03-10T19:53:46.717Z,59.59
2019-03-10T19:56:16.748Z,59.59
2019-03-10T19:58:46.773Z,60.17
2019-03-10T20:01:16.818Z,60.90
2019-03-10T20:03:47.116Z,61.93
2019-03-10T20:06:17.473Z,62.87
2019-03-10T20:08:47.519Z,64.86
2019-03-10T20:11:17.548Z,64.86
2019-03-10T20:13:47.941Z,65.21
2019-03-10T20:16:18.292Z,65.40
2019-03-10T20:18:48.675Z,67.21
2019-03-10T20:21:18.714Z,67.21
2019-03-10T20:23:49.005Z,67.78
2019-03-10T20:26:19.045Z,68.57
2019-03-10T20:28:49.354Z,69.71
2019-03-10T20:31:19.680Z,70.18
2019-03-10T20:33:52.318Z,70.38
2019-03-10T20:36:19.772Z,70.63
2019-03-10T20:38:49.793Z,71.03
2019-03-10T20:41:20.142Z,71.25
2019-03-10T20:43:50.176Z,71.44
2019-03-10T20:46:20.482Z,70.77
2019-03-10T20:48:50.498Z,71.56
2019-03-10T20:51:20.569Z,71.70
2019-03-10T20:53:50.599Z,71.53
2019-03-10T20:56:20.631Z,71.48
2019-03-10T20:58:50.707Z,71.90
2019-03-10T21:01:21.425Z,72.25
2019-03-10T21:03:51.315Z,72.48
2019-03-10T21:06:21.365Z,72.90
2019-03-10T21:08:51.766Z,72.31
2019-03-10T21:11:21.873Z,71.96
2019-03-10T21:13:51.899Z,72.09
2019-03-10T21:16:22.323Z,72.90
2019-03-10T21:18:52.325Z,72.91
2019-03-10T21:21:22.634Z,73.28
2019-03-10T21:23:55.240Z,73.79
2019-03-10T21:26:23.015Z,74.06
2019-03-10T21:28:53.049Z,74.68
2019-03-10T21:31:23.421Z,74.58
2019-03-10T21:33:53.453Z,75.00
2019-03-10T21:36:23.776Z,75.20
2019-03-10T21:38:53.866Z,75.20
2019-03-10T21:41:24.218Z,75.57
2019-03-10T21:43:54.662Z,75.82
2019-03-10T21:46:24.572Z,75.87
2019-03-10T21:48:54.594Z,75.65
2019-03-10T21:51:24.994Z,76.52
2019-03-10T21:53:55.061Z,76.54
2019-03-10T21:56:25.092Z,77.50
2019-03-10T21:58:55.431Z,78.11
2019-03-10T22:01:25.453Z,78.23
2019-03-10T22:03:55.764Z,78.61
2019-03-10T22:06:25.787Z,79.47
2019-03-10T22:08:55.818Z,80.25
2019-03-10T22:11:26.124Z,81.23
2019-03-10T22:13:56.455Z,81.57
2019-03-10T22:16:26.517Z,81.64
2019-03-10T22:18:56.538Z,82.12
2019-03-10T22:21:26.583Z,81.41
2019-03-10T22:23:59.489Z,81.79
2019-03-10T22:26:26.607Z,81.88
2019-03-10T22:28:56.773Z,82.16
2019-03-10T22:31:26.695Z,81.97
2019-03-10T22:33:56.722Z,82.20
2019-03-10T22:36:26.757Z,81.11
2019-03-10T22:38:57.156Z,81.20
2019-03-10T22:41:27.528Z,81.80
2019-03-10T22:43:57.565Z,81.57
2019-03-10T22:46:27.581Z,81.78
2019-03-10T22:48:57.616Z,81.74
2019-03-10T22:51:27.634Z,81.36
2019-03-10T22:53:57.667Z,79.69
2019-03-10T22:56:27.679Z,78.72
2019-03-10T22:58:58.048Z,77.98
2019-03-10T23:01:28.365Z,76.84
2019-03-10T23:03:58.700Z,76.54
2019-03-10T23:06:28.727Z,76.52
2019-03-10T23:08:59.131Z,76.73
2019-03-10T23:11:29.159Z,76.23
2019-03-10T23:13:59.184Z,75.60
2019-03-10T23:16:29.481Z,75.86
2019-03-10T23:18:59.512Z,75.82
2019-03-10T23:21:29.587Z,75.33
2019-03-10T23:23:59.621Z,75.18
2019-03-10T23:26:29.966Z,75.40
2019-03-10T23:29:00.003Z,75.41
2019-03-10T23:31:30.214Z,75.29
2019-03-10T23:34:00.248Z,74.37
2019-03-10T23:36:30.278Z,74.40
2019-03-10T23:39:00.332Z,73.75
2019-03-10T23:41:30.365Z,73.90
2019-03-10T23:44:00.413Z,73.70
2019-03-10T23:46:30.804Z,74.33
2019-03-10T23:49:00.841Z,74.17
2019-03-10T23:51:30.892Z,73.73
2019-03-10T23:54:00.900Z,73.30
2019-03-10T23:56:31.266Z,73.48
2019-03-10T23:59:01.316Z,73.88
